CPA973 ZSAM-VHHH
Flight info
| Callsign | CPA973 |
|---|---|
| Flight time | N/A |
| Altitude | 26000 |
| Route | NUSPA9Z NUSPA W597 IKATA A470 BEBEM/N0495F256 A470 DOTMI/N0481F240 V512 ABBEY |
| Aircraft | A359/H-SDE2E3GHIJ3J4J5LM1ORWXY/LB1D1 |
Departure
| Time | 2026-04-30 02:58 |
|---|---|
| Airport | Xiamen Gaoqi International Airport (ZSAM) |
Arrival
| Time | N/A |
|---|---|
| Airport | Hong Kong International Airport (VHHH) |
| Time | Latitude | Longitude | Altitude | Speed | Heading |
|---|---|---|---|---|---|
| 2026-04-30 02:37 | 24.53831 | 118.12630 | 55 ft | 0 kts | 142° |
| 2026-04-30 02:50 | 24.53833 | 118.12628 | 64 ft | 3 kts | 143° |
| 2026-04-30 02:50 | 24.53855 | 118.12612 | 55 ft | 4 kts | 154° |
| 2026-04-30 02:50 | 24.53880 | 118.12602 | 55 ft | 4 kts | 167° |
| 2026-04-30 02:50 | 24.53906 | 118.12597 | 57 ft | 2 kts | 172° |
| 2026-04-30 02:51 | 24.53911 | 118.12596 | 55 ft | 0 kts | 172° |
| 2026-04-30 02:53 | 24.53908 | 118.12595 | 58 ft | 2 kts | 189° |
| 2026-04-30 02:53 | 24.53915 | 118.12567 | 55 ft | 9 kts | 321° |
| 2026-04-30 02:53 | 24.53940 | 118.12502 | 56 ft | 4 kts | 242° |
| 2026-04-30 02:53 | 24.53914 | 118.12466 | 69 ft | 11 kts | 232° |
| 2026-04-30 02:54 | 24.53832 | 118.12351 | 56 ft | 27 kts | 232° |
| 2026-04-30 02:54 | 24.53708 | 118.12183 | 57 ft | 26 kts | 231° |
| 2026-04-30 02:54 | 24.53591 | 118.12027 | 59 ft | 27 kts | 225° |
| 2026-04-30 02:54 | 24.53473 | 118.11868 | 65 ft | 27 kts | 232° |
| 2026-04-30 02:55 | 24.53380 | 118.11733 | 66 ft | 12 kts | 244° |
| 2026-04-30 02:55 | 24.53392 | 118.11612 | 63 ft | 20 kts | 284° |
| 2026-04-30 02:55 | 24.53467 | 118.11486 | 66 ft | 19 kts | 359° |
| 2026-04-30 02:55 | 24.53544 | 118.11552 | 60 ft | 0 kts | 52° |
| 2026-04-30 02:57 | 24.53547 | 118.11557 | 60 ft | 7 kts | 52° |
| 2026-04-30 02:57 | 24.53720 | 118.11800 | 62 ft | 77 kts | 52° |
| 2026-04-30 02:57 | 24.54195 | 118.12464 | 38 ft | 139 kts | 52° |
| 2026-04-30 02:58 | 24.54873 | 118.13403 | 371 ft | 166 kts | 52° |
| 2026-04-30 02:58 | 24.55574 | 118.14381 | 1177 ft | 164 kts | 52° |
| 2026-04-30 02:58 | 24.56246 | 118.15419 | 1879 ft | 171 kts | 58° |
| 2026-04-30 02:58 | 24.56430 | 118.16739 | 2382 ft | 186 kts | 95° |
| 2026-04-30 02:59 | 24.56063 | 118.18182 | 2775 ft | 207 kts | 111° |
| 2026-04-30 02:59 | 24.55316 | 118.19614 | 3279 ft | 225 kts | 124° |
| 2026-04-30 02:59 | 24.54225 | 118.20924 | 3782 ft | 244 kts | 138° |
| 2026-04-30 02:59 | 24.52769 | 118.22029 | 4166 ft | 263 kts | 156° |
| 2026-04-30 03:00 | 24.50975 | 118.22477 | 4860 ft | 268 kts | 180° |
| 2026-04-30 03:00 | 24.49276 | 118.21921 | 5923 ft | 249 kts | 217° |
| 2026-04-30 03:00 | 24.48301 | 118.20476 | 7111 ft | 231 kts | 253° |
| 2026-04-30 03:00 | 24.48348 | 118.18776 | 8178 ft | 226 kts | 285° |
| 2026-04-30 03:01 | 24.48748 | 118.17054 | 8710 ft | 241 kts | 275° |
| 2026-04-30 03:01 | 24.48743 | 118.15154 | 9140 ft | 257 kts | 258° |
| 2026-04-30 03:01 | 24.48026 | 118.13347 | 9866 ft | 263 kts | 234° |
| 2026-04-30 03:01 | 24.46728 | 118.11890 | 10473 ft | 275 kts | 221° |
| 2026-04-30 03:02 | 24.45192 | 118.10520 | 10821 ft | 294 kts | 222° |
| 2026-04-30 03:02 | 24.43605 | 118.08988 | 11148 ft | 313 kts | 225° |
| 2026-04-30 03:02 | 24.42031 | 118.07241 | 11449 ft | 330 kts | 229° |
| 2026-04-30 03:02 | 24.40527 | 118.05279 | 11859 ft | 341 kts | 233° |
| 2026-04-30 03:03 | 24.38934 | 118.03322 | 12455 ft | 346 kts | 226° |
| 2026-04-30 03:03 | 24.35445 | 117.99575 | 13597 ft | 355 kts | 231° |
| 2026-04-30 03:03 | 24.33963 | 117.97400 | 14178 ft | 357 kts | 236° |
| 2026-04-30 03:04 | 24.32522 | 117.95167 | 14718 ft | 360 kts | 236° |
| 2026-04-30 03:04 | 24.31039 | 117.92942 | 15242 ft | 363 kts | 235° |
| 2026-04-30 03:04 | 24.29515 | 117.90721 | 15751 ft | 366 kts | 234° |
| 2026-04-30 03:04 | 24.27961 | 117.88496 | 16259 ft | 369 kts | 234° |
| 2026-04-30 03:05 | 24.26383 | 117.86260 | 16767 ft | 372 kts | 234° |
| 2026-04-30 03:05 | 24.24747 | 117.84046 | 17276 ft | 376 kts | 230° |
| 2026-04-30 03:05 | 24.22923 | 117.81968 | 17767 ft | 380 kts | 227° |
| 2026-04-30 03:05 | 24.21027 | 117.79926 | 18255 ft | 383 kts | 227° |
| 2026-04-30 03:06 | 24.19112 | 117.77878 | 18720 ft | 386 kts | 227° |
| 2026-04-30 03:06 | 24.17185 | 117.75814 | 19166 ft | 389 kts | 227° |
| 2026-04-30 03:06 | 24.15247 | 117.73730 | 19585 ft | 393 kts | 227° |
| 2026-04-30 03:06 | 24.13287 | 117.71627 | 19990 ft | 396 kts | 227° |
| 2026-04-30 03:07 | 24.11339 | 117.69543 | 20414 ft | 398 kts | 227° |
| 2026-04-30 03:07 | 24.09352 | 117.67417 | 20873 ft | 400 kts | 227° |
| 2026-04-30 03:07 | 24.07330 | 117.65252 | 21317 ft | 403 kts | 227° |
| 2026-04-30 03:07 | 24.05316 | 117.63097 | 21764 ft | 406 kts | 227° |
| 2026-04-30 03:08 | 24.03318 | 117.60967 | 22213 ft | 408 kts | 227° |
| 2026-04-30 03:08 | 24.01281 | 117.58785 | 22647 ft | 411 kts | 227° |
| 2026-04-30 03:08 | 23.99236 | 117.56589 | 23064 ft | 413 kts | 227° |
| 2026-04-30 03:08 | 23.97179 | 117.54380 | 23474 ft | 416 kts | 227° |
| 2026-04-30 03:09 | 23.95107 | 117.52156 | 23839 ft | 418 kts | 227° |
| 2026-04-30 03:09 | 23.93026 | 117.49926 | 24207 ft | 420 kts | 227° |
| 2026-04-30 03:09 | 23.90933 | 117.47686 | 24580 ft | 422 kts | 227° |
| 2026-04-30 03:09 | 23.88833 | 117.45439 | 25022 ft | 423 kts | 227° |
| 2026-04-30 03:10 | 23.86764 | 117.43144 | 25408 ft | 425 kts | 231° |
| 2026-04-30 03:10 | 23.84952 | 117.40590 | 25828 ft | 426 kts | 238° |
| 2026-04-30 03:10 | 23.83526 | 117.37767 | 26038 ft | 425 kts | 247° |
| 2026-04-30 03:10 | 23.82441 | 117.34721 | 26082 ft | 437 kts | 251° |
| 2026-04-30 03:11 | 23.81468 | 117.31534 | 26082 ft | 447 kts | 253° |
| 2026-04-30 03:11 | 23.80548 | 117.28269 | 26081 ft | 451 kts | 253° |
| 2026-04-30 03:11 | 23.79650 | 117.24980 | 26080 ft | 452 kts | 254° |
| 2026-04-30 03:11 | 23.78752 | 117.21693 | 26086 ft | 452 kts | 253° |
| 2026-04-30 03:12 | 23.77841 | 117.18404 | 26086 ft | 452 kts | 253° |
| 2026-04-30 03:12 | 23.76699 | 117.15204 | 26085 ft | 454 kts | 245° |
| 2026-04-30 03:12 | 23.75048 | 117.12265 | 26081 ft | 457 kts | 234° |
| 2026-04-30 03:12 | 23.73021 | 117.09588 | 26083 ft | 458 kts | 231° |
| 2026-04-30 03:13 | 23.70871 | 117.07012 | 26068 ft | 459 kts | 229° |
| 2026-04-30 03:13 | 23.68665 | 117.04499 | 26080 ft | 459 kts | 228° |
| 2026-04-30 03:13 | 23.66434 | 117.02009 | 26080 ft | 458 kts | 228° |
| 2026-04-30 03:13 | 23.64202 | 116.99525 | 26080 ft | 458 kts | 228° |
| 2026-04-30 03:14 | 23.61978 | 116.97039 | 26077 ft | 458 kts | 228° |
| 2026-04-30 03:14 | 23.60512 | 116.95391 | 26078 ft | 458 kts | 228° |
| 2026-04-30 03:14 | 23.57552 | 116.92049 | 26077 ft | 458 kts | 228° |
| 2026-04-30 03:14 | 23.56089 | 116.90391 | 26078 ft | 458 kts | 228° |
| 2026-04-30 03:15 | 23.53887 | 116.87891 | 26080 ft | 458 kts | 228° |
| 2026-04-30 03:15 | 23.50938 | 116.84543 | 26077 ft | 458 kts | 229° |
| 2026-04-30 03:15 | 23.49475 | 116.82882 | 26077 ft | 459 kts | 229° |
| 2026-04-30 03:15 | 23.47267 | 116.80377 | 26065 ft | 459 kts | 228° |
| 2026-04-30 03:16 | 23.45038 | 116.77882 | 26074 ft | 460 kts | 226° |
| 2026-04-30 03:16 | 23.42616 | 116.75597 | 26075 ft | 461 kts | 221° |
| 2026-04-30 03:16 | 23.40115 | 116.73412 | 26077 ft | 462 kts | 220° |
| 2026-04-30 03:16 | 23.37579 | 116.71270 | 26078 ft | 462 kts | 220° |
| 2026-04-30 03:17 | 23.35023 | 116.69148 | 26077 ft | 462 kts | 220° |
| 2026-04-30 03:17 | 23.32462 | 116.67035 | 26075 ft | 462 kts | 220° |
| 2026-04-30 03:17 | 23.29901 | 116.64925 | 26072 ft | 462 kts | 220° |
| 2026-04-30 03:17 | 23.27340 | 116.62812 | 26073 ft | 462 kts | 220° |
| 2026-04-30 03:18 | 23.24779 | 116.60694 | 26078 ft | 462 kts | 220° |
| 2026-04-30 03:18 | 23.22222 | 116.58577 | 26064 ft | 462 kts | 219° |
| 2026-04-30 03:18 | 23.19666 | 116.56459 | 26076 ft | 463 kts | 219° |
| 2026-04-30 03:18 | 23.17103 | 116.54335 | 26073 ft | 463 kts | 219° |
| 2026-04-30 03:19 | 23.14539 | 116.52211 | 26073 ft | 463 kts | 219° |
| 2026-04-30 03:19 | 23.11977 | 116.50090 | 26072 ft | 463 kts | 219° |
| 2026-04-30 03:19 | 23.09413 | 116.47968 | 26072 ft | 463 kts | 219° |
| 2026-04-30 03:19 | 23.06848 | 116.45846 | 26073 ft | 463 kts | 219° |
| 2026-04-30 03:20 | 23.04284 | 116.43726 | 26073 ft | 463 kts | 219° |
| 2026-04-30 03:20 | 23.01753 | 116.41635 | 26063 ft | 463 kts | 219° |
| 2026-04-30 03:20 | 22.99189 | 116.39517 | 26063 ft | 463 kts | 219° |
| 2026-04-30 03:20 | 22.96625 | 116.37401 | 26069 ft | 463 kts | 219° |
| 2026-04-30 03:21 | 22.94057 | 116.35283 | 26068 ft | 463 kts | 219° |
| 2026-04-30 03:21 | 22.91495 | 116.33162 | 26065 ft | 463 kts | 220° |
| 2026-04-30 03:21 | 22.88936 | 116.31036 | 26064 ft | 463 kts | 220° |
| 2026-04-30 03:21 | 22.86381 | 116.28910 | 26064 ft | 463 kts | 220° |
| 2026-04-30 03:22 | 22.83824 | 116.26784 | 26061 ft | 463 kts | 220° |
| 2026-04-30 03:22 | 22.81266 | 116.24659 | 26071 ft | 463 kts | 220° |
| 2026-04-30 03:22 | 22.78704 | 116.22532 | 26069 ft | 464 kts | 220° |
| 2026-04-30 03:22 | 22.76143 | 116.20409 | 26070 ft | 464 kts | 220° |
| 2026-04-30 03:23 | 22.73575 | 116.18282 | 26068 ft | 464 kts | 220° |
| 2026-04-30 03:23 | 22.71010 | 116.16160 | 26056 ft | 465 kts | 219° |
| 2026-04-30 03:23 | 22.68429 | 116.14045 | 26061 ft | 466 kts | 219° |
| 2026-04-30 03:23 | 22.65839 | 116.11934 | 26062 ft | 466 kts | 219° |
| 2026-04-30 03:24 | 22.63251 | 116.09828 | 26065 ft | 466 kts | 219° |
| 2026-04-30 03:24 | 22.60657 | 116.07719 | 26062 ft | 466 kts | 219° |
| 2026-04-30 03:24 | 22.58067 | 116.05613 | 26056 ft | 466 kts | 219° |
| 2026-04-30 03:24 | 22.55478 | 116.03508 | 26060 ft | 466 kts | 219° |
| 2026-04-30 03:25 | 22.52887 | 116.01401 | 26057 ft | 466 kts | 219° |
| 2026-04-30 03:25 | 22.50297 | 115.99295 | 26058 ft | 466 kts | 219° |
| 2026-04-30 03:25 | 22.47708 | 115.97190 | 26053 ft | 466 kts | 219° |
| 2026-04-30 03:25 | 22.45114 | 115.95081 | 26056 ft | 467 kts | 219° |
| 2026-04-30 03:26 | 22.42517 | 115.92972 | 26052 ft | 468 kts | 219° |
| 2026-04-30 03:26 | 22.40009 | 115.90745 | 26053 ft | 466 kts | 225° |
| 2026-04-30 03:26 | 22.37823 | 115.88186 | 26053 ft | 460 kts | 233° |
| 2026-04-30 03:26 | 22.36086 | 115.85303 | 26053 ft | 457 kts | 243° |
| 2026-04-30 03:27 | 22.34907 | 115.82135 | 26036 ft | 456 kts | 254° |
| 2026-04-30 03:27 | 22.34180 | 115.78807 | 25813 ft | 455 kts | 258° |
| 2026-04-30 03:27 | 22.33656 | 115.75441 | 25581 ft | 455 kts | 261° |
| 2026-04-30 03:27 | 22.33231 | 115.72059 | 25349 ft | 454 kts | 262° |
| 2026-04-30 03:28 | 22.32839 | 115.68680 | 25123 ft | 453 kts | 262° |
| 2026-04-30 03:28 | 22.32447 | 115.65314 | 24904 ft | 451 kts | 262° |
| 2026-04-30 03:28 | 22.32039 | 115.61957 | 24677 ft | 450 kts | 262° |
| 2026-04-30 03:28 | 22.31615 | 115.58612 | 24453 ft | 449 kts | 261° |
| 2026-04-30 03:29 | 22.31186 | 115.55323 | 24238 ft | 448 kts | 261° |
| 2026-04-30 03:29 | 22.30744 | 115.52001 | 24005 ft | 446 kts | 261° |
| 2026-04-30 03:29 | 22.30302 | 115.48713 | 23557 ft | 439 kts | 261° |
| 2026-04-30 03:29 | 22.29864 | 115.45466 | 22973 ft | 435 kts | 261° |
| 2026-04-30 03:30 | 22.29430 | 115.42252 | 22399 ft | 430 kts | 261° |
| 2026-04-30 03:30 | 22.29001 | 115.39084 | 21843 ft | 425 kts | 261° |
| 2026-04-30 03:30 | 22.28577 | 115.35941 | 21253 ft | 421 kts | 261° |
| 2026-04-30 03:30 | 22.28317 | 115.32803 | 20637 ft | 419 kts | 266° |
| 2026-04-30 03:31 | 22.28182 | 115.29671 | 20031 ft | 416 kts | 267° |
| 2026-04-30 03:31 | 22.28070 | 115.26565 | 19427 ft | 413 kts | 267° |
| 2026-04-30 03:31 | 22.27968 | 115.23475 | 18806 ft | 410 kts | 267° |
| 2026-04-30 03:31 | 22.27869 | 115.20413 | 18167 ft | 407 kts | 267° |
| 2026-04-30 03:32 | 22.27772 | 115.17369 | 17478 ft | 403 kts | 267° |
| 2026-04-30 03:32 | 22.27677 | 115.14363 | 16866 ft | 399 kts | 268° |
| 2026-04-30 03:32 | 22.27583 | 115.11390 | 16242 ft | 394 kts | 268° |
| 2026-04-30 03:32 | 22.27489 | 115.08446 | 15628 ft | 390 kts | 268° |
| 2026-04-30 03:33 | 22.27397 | 115.05538 | 14998 ft | 386 kts | 268° |
| 2026-04-30 03:33 | 22.27304 | 115.02652 | 14371 ft | 383 kts | 268° |
| 2026-04-30 03:33 | 22.27212 | 114.99791 | 13748 ft | 380 kts | 268° |
| 2026-04-30 03:33 | 22.27121 | 114.96958 | 13080 ft | 376 kts | 268° |
| 2026-04-30 03:34 | 22.27030 | 114.94154 | 12524 ft | 370 kts | 268° |
| 2026-04-30 03:34 | 22.26943 | 114.91446 | 12379 ft | 352 kts | 268° |
| 2026-04-30 03:34 | 22.26860 | 114.88866 | 12248 ft | 336 kts | 268° |
| 2026-04-30 03:34 | 22.26778 | 114.86402 | 12122 ft | 321 kts | 268° |
| 2026-04-30 03:35 | 22.26700 | 114.84050 | 11997 ft | 307 kts | 268° |
| 2026-04-30 03:35 | 22.26623 | 114.81769 | 11664 ft | 302 kts | 268° |
| 2026-04-30 03:35 | 22.26396 | 114.79523 | 11270 ft | 301 kts | 257° |
| 2026-04-30 03:35 | 22.25593 | 114.77456 | 10955 ft | 299 kts | 238° |
| 2026-04-30 03:36 | 22.24205 | 114.75706 | 10876 ft | 314 kts | 227° |
| 2026-04-30 03:36 | 22.22620 | 114.74061 | 10721 ft | 318 kts | 225° |
| 2026-04-30 03:36 | 22.21006 | 114.72426 | 10563 ft | 318 kts | 225° |
| 2026-04-30 03:36 | 22.19401 | 114.70795 | 10413 ft | 315 kts | 225° |
| 2026-04-30 03:37 | 22.17844 | 114.69208 | 10276 ft | 301 kts | 225° |
| 2026-04-30 03:37 | 22.16350 | 114.67683 | 10132 ft | 289 kts | 226° |
| 2026-04-30 03:37 | 22.14922 | 114.66221 | 9994 ft | 279 kts | 226° |
| 2026-04-30 03:37 | 22.13518 | 114.64780 | 9855 ft | 279 kts | 226° |
| 2026-04-30 03:38 | 22.12132 | 114.63357 | 9722 ft | 279 kts | 226° |
| 2026-04-30 03:38 | 22.10725 | 114.61912 | 9592 ft | 279 kts | 226° |
| 2026-04-30 03:38 | 22.09301 | 114.60452 | 9455 ft | 279 kts | 226° |
| 2026-04-30 03:38 | 22.07889 | 114.59004 | 9341 ft | 280 kts | 226° |
| 2026-04-30 03:39 | 22.06499 | 114.57579 | 9204 ft | 279 kts | 226° |
| 2026-04-30 03:39 | 22.05094 | 114.56140 | 9071 ft | 278 kts | 226° |
| 2026-04-30 03:39 | 22.03690 | 114.54701 | 8942 ft | 278 kts | 226° |
| 2026-04-30 03:39 | 22.02393 | 114.53165 | 8820 ft | 276 kts | 237° |
| 2026-04-30 03:40 | 22.01510 | 114.51346 | 8674 ft | 273 kts | 248° |
| 2026-04-30 03:40 | 22.00783 | 114.49455 | 8568 ft | 273 kts | 249° |
| 2026-04-30 03:40 | 22.00072 | 114.47558 | 8432 ft | 273 kts | 249° |
| 2026-04-30 03:40 | 21.99358 | 114.45665 | 8309 ft | 272 kts | 249° |
| 2026-04-30 03:41 | 21.98643 | 114.43780 | 8181 ft | 272 kts | 249° |
| 2026-04-30 03:41 | 21.97927 | 114.41899 | 8049 ft | 271 kts | 249° |
| 2026-04-30 03:41 | 21.97208 | 114.40020 | 7921 ft | 271 kts | 249° |
| 2026-04-30 03:41 | 21.96491 | 114.38145 | 7817 ft | 270 kts | 249° |
| 2026-04-30 03:42 | 21.95775 | 114.36276 | 7661 ft | 270 kts | 249° |
| 2026-04-30 03:42 | 21.95059 | 114.34406 | 7555 ft | 270 kts | 249° |
| 2026-04-30 03:42 | 21.94343 | 114.32541 | 7419 ft | 269 kts | 249° |
| 2026-04-30 03:42 | 21.93629 | 114.30680 | 7302 ft | 269 kts | 248° |
| 2026-04-30 03:43 | 21.92917 | 114.28824 | 7173 ft | 267 kts | 248° |
| 2026-04-30 03:43 | 21.92206 | 114.26974 | 7045 ft | 268 kts | 249° |
| 2026-04-30 03:43 | 21.91495 | 114.25124 | 6926 ft | 268 kts | 248° |
| 2026-04-30 03:43 | 21.90784 | 114.23273 | 6771 ft | 267 kts | 249° |
| 2026-04-30 03:44 | 21.90083 | 114.21428 | 6603 ft | 266 kts | 250° |
| 2026-04-30 03:44 | 21.89701 | 114.19498 | 6472 ft | 265 kts | 270° |
| 2026-04-30 03:44 | 21.90080 | 114.17582 | 6353 ft | 263 kts | 292° |
| 2026-04-30 03:44 | 21.90918 | 114.15825 | 6223 ft | 265 kts | 298° |
| 2026-04-30 03:45 | 21.91831 | 114.14101 | 6100 ft | 265 kts | 298° |
| 2026-04-30 03:45 | 21.92742 | 114.12380 | 5975 ft | 264 kts | 298° |
| 2026-04-30 03:45 | 21.93645 | 114.10662 | 5847 ft | 263 kts | 298° |
| 2026-04-30 03:45 | 21.94539 | 114.08947 | 5725 ft | 262 kts | 297° |
| 2026-04-30 03:46 | 21.95425 | 114.07241 | 5597 ft | 261 kts | 297° |